createdAt,value
2019-02-17T00:00:48.611Z,12.00
2019-02-17T00:03:33.324Z,18.10
2019-02-17T00:06:18.012Z,13.80
2019-02-17T00:09:03.490Z,13.53
2019-02-17T00:11:49.856Z,11.77
2019-02-17T00:14:34.744Z,12.87
2019-02-17T00:17:19.080Z,12.07
2019-02-17T00:20:04.096Z,13.73
2019-02-17T00:22:48.776Z,13.03
2019-02-17T00:25:34.101Z,13.33
2019-02-17T00:28:19.051Z,12.70
2019-02-17T00:31:12.679Z,13.40
2019-02-17T00:33:57.743Z,13.80
2019-02-17T00:36:41.859Z,14.20
2019-02-17T00:39:26.213Z,13.10
2019-02-17T00:42:19.459Z,13.83
2019-02-17T00:45:04.016Z,12.33
2019-02-17T00:47:49.044Z,12.37
2019-02-17T00:50:35.556Z,11.50
2019-02-17T00:53:19.748Z,12.13
2019-02-17T00:56:04.568Z,12.27
2019-02-17T00:58:49.267Z,12.23
2019-02-17T01:01:42.531Z,11.67
2019-02-17T01:04:27.475Z,12.67
2019-02-17T01:07:12.076Z,12.20
2019-02-17T01:09:57.035Z,12.17
2019-02-17T01:12:41.444Z,11.23
2019-02-17T01:15:25.924Z,11.77
2019-02-17T01:18:10.547Z,11.37
2019-02-17T01:21:03.831Z,11.60
2019-02-17T01:23:48.575Z,11.57
2019-02-17T01:26:32.779Z,11.40
2019-02-17T01:29:20.562Z,11.77
2019-02-17T01:32:12.672Z,11.80
2019-02-17T01:34:57.395Z,12.10
2019-02-17T01:37:42.041Z,12.43
2019-02-17T01:40:27.025Z,13.97
2019-02-17T01:43:12.340Z,11.93
2019-02-17T01:46:05.841Z,11.70
2019-02-17T01:48:50.793Z,10.97
2019-02-17T01:51:35.999Z,11.10
2019-02-17T01:54:29.529Z,11.43
2019-02-17T01:57:14.521Z,12.13
2019-02-17T01:59:59.532Z,12.50
2019-02-17T02:02:53.342Z,11.97
2019-02-17T02:05:38.016Z,11.47
2019-02-17T02:08:23.229Z,11.73
2019-02-17T02:11:16.882Z,10.83
2019-02-17T02:14:01.784Z,11.40
2019-02-17T02:16:46.906Z,10.87
2019-02-17T02:19:41.507Z,11.50
2019-02-17T02:22:26.485Z,12.17
2019-02-17T02:25:11.449Z,13.53
2019-02-17T02:27:56.768Z,13.00
2019-02-17T02:30:41.861Z,15.07
2019-02-17T02:33:36.001Z,15.27
2019-02-17T02:36:29.873Z,11.97
2019-02-17T02:39:14.780Z,12.37
2019-02-17T02:42:00.001Z,12.83
2019-02-17T02:44:53.667Z,13.70
2019-02-17T02:47:47.681Z,13.77
2019-02-17T02:50:32.969Z,12.23
2019-02-17T02:53:26.240Z,11.47
2019-02-17T02:56:10.914Z,10.93
2019-02-17T02:58:55.606Z,11.23
2019-02-17T03:01:40.822Z,11.17
2019-02-17T03:04:25.594Z,11.17
2019-02-17T03:07:13.694Z,11.27
2019-02-17T03:09:58.671Z,10.63
2019-02-17T03:12:43.760Z,10.30
2019-02-17T03:15:37.677Z,10.37
2019-02-17T03:18:31.514Z,9.83
2019-02-17T03:21:16.208Z,10.30
2019-02-17T03:24:01.423Z,11.00
2019-02-17T03:26:56.038Z,10.57
2019-02-17T03:29:40.445Z,9.80
2019-02-17T03:32:39.917Z,9.83
2019-02-17T03:35:24.746Z,10.10
2019-02-17T03:38:09.362Z,9.70
2019-02-17T03:40:54.387Z,9.70
2019-02-17T03:43:39.028Z,8.93
2019-02-17T03:46:23.769Z,9.47
2019-02-17T03:49:08.093Z,9.87
2019-02-17T03:51:53.067Z,10.50
2019-02-17T03:54:37.980Z,9.80
2019-02-17T03:57:23.532Z,9.20
2019-02-17T04:00:16.544Z,9.77
2019-02-17T04:03:03.772Z,9.10
2019-02-17T04:05:49.228Z,9.67
2019-02-17T04:08:43.004Z,9.23
2019-02-17T04:11:36.926Z,8.80
2019-02-17T04:14:21.881Z,9.00
2019-02-17T04:17:06.289Z,9.20
2019-02-17T04:19:51.541Z,8.63
2019-02-17T04:22:36.525Z,9.03
2019-02-17T04:25:30.842Z,8.50
2019-02-17T04:28:24.671Z,8.73
2019-02-17T04:31:10.505Z,7.97
2019-02-17T04:33:54.949Z,8.73
2019-02-17T04:36:39.753Z,8.50
2019-02-17T04:39:24.247Z,8.60
2019-02-17T04:42:18.272Z,7.90
2019-02-17T04:45:11.699Z,7.87
2019-02-17T04:47:56.893Z,8.10
2019-02-17T04:50:50.741Z,8.47
2019-02-17T04:53:35.577Z,8.33
2019-02-17T04:56:20.113Z,8.10
2019-02-17T04:59:04.893Z,8.13
2019-02-17T05:01:49.641Z,8.00
2019-02-17T05:04:35.133Z,8.70
2019-02-17T05:07:29.637Z,8.93
2019-02-17T05:10:14.537Z,8.07
2019-02-17T05:12:58.185Z,9.30
2019-02-17T05:19:03.359Z,8.70
2019-02-17T05:21:57.045Z,8.00
2019-02-17T05:24:41.561Z,8.67
2019-02-17T05:27:25.949Z,8.50
2019-02-17T05:30:11.055Z,8.20
2019-02-17T05:32:56.165Z,8.40
2019-02-17T05:35:40.721Z,8.47
2019-02-17T05:38:25.494Z,8.40
2019-02-17T05:41:10.565Z,8.83
2019-02-17T05:43:55.780Z,9.83
2019-02-17T05:46:49.831Z,8.40
2019-02-17T05:49:43.792Z,8.90
2019-02-17T05:52:28.645Z,8.93
2019-02-17T05:55:14.119Z,8.90
2019-02-17T05:57:59.610Z,8.53
2019-02-17T06:00:44.397Z,8.97
2019-02-17T06:03:29.925Z,8.80
2019-02-17T06:06:24.260Z,9.13
2019-02-17T06:09:08.729Z,9.30
2019-02-17T06:12:02.522Z,8.57
2019-02-17T06:14:56.260Z,8.90
2019-02-17T06:17:40.890Z,8.77
2019-02-17T06:20:25.782Z,8.90
2019-02-17T06:23:11.004Z,8.50
2019-02-17T06:25:56.000Z,8.70
2019-02-17T06:28:52.251Z,8.90
2019-02-17T06:31:38.212Z,8.17
2019-02-17T06:34:22.920Z,9.43
2019-02-17T06:37:07.388Z,10.50
2019-02-17T06:39:52.192Z,9.97
2019-02-17T06:42:37.353Z,9.60
2019-02-17T06:45:23.373Z,10.13
2019-02-17T06:48:08.363Z,9.10
2019-02-17T06:50:53.732Z,9.03
2019-02-17T06:53:47.792Z,10.37
2019-02-17T06:57:01.140Z,10.23
2019-02-17T07:00:17.717Z,9.93
2019-02-17T07:03:16.743Z,9.43
2019-02-17T07:06:26.814Z,8.90
2019-02-17T07:09:12.188Z,9.23
2019-02-17T07:12:26.376Z,9.73
2019-02-17T07:15:11.489Z,10.07
2019-02-17T07:17:59.117Z,10.40
2019-02-17T07:20:43.896Z,9.83
2019-02-17T07:23:28.860Z,9.67
2019-02-17T07:26:22.665Z,9.70
2019-02-17T07:29:07.596Z,9.97
2019-02-17T07:31:51.996Z,9.67
2019-02-17T07:34:36.723Z,9.77
2019-02-17T07:37:21.767Z,10.13
2019-02-17T07:40:07.169Z,10.33
2019-02-17T07:43:00.949Z,10.43
2019-02-17T07:45:45.775Z,10.83
2019-02-17T07:48:30.497Z,10.93
2019-02-17T07:51:15.675Z,10.20
2019-02-17T07:54:09.197Z,10.17
2019-02-17T07:56:53.569Z,11.43
2019-02-17T07:59:40.818Z,11.73
2019-02-17T08:02:26.069Z,11.37
2019-02-17T08:05:19.773Z,11.97
2019-02-17T08:08:13.801Z,12.37
2019-02-17T08:11:08.385Z,12.63
2019-02-17T08:14:01.968Z,11.30
2019-02-17T08:16:55.873Z,11.70
2019-02-17T08:19:40.809Z,11.67
2019-02-17T08:22:26.950Z,11.93
2019-02-17T08:25:21.406Z,11.97
2019-02-17T08:28:07.589Z,11.93
2019-02-17T08:30:52.705Z,12.30
2019-02-17T08:33:46.690Z,12.37
2019-02-17T08:36:40.591Z,12.27
2019-02-17T08:39:26.000Z,13.90
2019-02-17T08:42:19.528Z,12.33
2019-02-17T08:45:04.522Z,12.70
2019-02-17T08:47:58.536Z,12.30
2019-02-17T08:50:42.873Z,13.37
2019-02-17T08:53:28.152Z,13.07
2019-02-17T08:56:13.733Z,11.63
2019-02-17T08:58:58.837Z,11.80
2019-02-17T09:01:43.897Z,12.77
2019-02-17T09:04:28.193Z,12.33
2019-02-17T09:07:13.268Z,11.93
2019-02-17T09:09:58.187Z,12.43
2019-02-17T09:12:42.693Z,11.57
2019-02-17T09:15:27.946Z,12.73
2019-02-17T09:18:12.612Z,13.37
2019-02-17T09:20:57.314Z,11.70
2019-02-17T09:23:42.512Z,12.47
2019-02-17T09:26:29.545Z,12.40
2019-02-17T09:29:13.693Z,12.20
2019-02-17T09:31:59.464Z,12.07
2019-02-17T09:34:44.252Z,12.90
2019-02-17T09:37:28.985Z,12.27
2019-02-17T09:40:14.081Z,12.13
2019-02-17T09:42:59.455Z,12.47
2019-02-17T09:45:45.520Z,12.97
2019-02-17T09:48:30.900Z,12.10
2019-02-17T09:51:24.845Z,13.03
2019-02-17T09:54:19.016Z,13.07
2019-02-17T09:57:13.283Z,13.83
2019-02-17T10:00:07.184Z,13.47
2019-02-17T10:03:01.279Z,13.07
2019-02-17T10:05:47.353Z,12.77
2019-02-17T10:08:33.234Z,12.47
2019-02-17T10:11:17.569Z,12.97
2019-02-17T10:14:11.337Z,12.03
2019-02-17T10:16:55.988Z,12.67
2019-02-17T10:19:41.352Z,12.87
2019-02-17T10:22:35.732Z,12.30
2019-02-17T10:25:20.734Z,11.50
2019-02-17T10:28:05.709Z,12.00
2019-02-17T10:30:50.393Z,12.30
2019-02-17T10:33:35.581Z,12.00
2019-02-17T10:36:20.461Z,11.90
2019-02-17T10:39:06.050Z,11.83
2019-02-17T10:42:01.013Z,11.97
2019-02-17T10:44:46.593Z,11.73
2019-02-17T10:47:31.649Z,12.70
2019-02-17T10:50:16.877Z,12.47
2019-02-17T10:53:02.524Z,11.37
2019-02-17T10:55:56.167Z,11.90
2019-02-17T10:58:50.508Z,11.70
2019-02-17T11:01:44.825Z,12.07
2019-02-17T11:04:38.531Z,11.70
2019-02-17T11:07:32.621Z,11.47
2019-02-17T11:10:26.728Z,11.97
2019-02-17T11:13:20.381Z,11.10
2019-02-17T11:16:04.808Z,11.57
2019-02-17T11:18:49.442Z,12.13
2019-02-17T11:21:34.756Z,11.40
2019-02-17T11:24:19.040Z,12.00
2019-02-17T11:27:03.961Z,12.37
2019-02-17T11:29:48.541Z,11.90
2019-02-17T11:32:41.962Z,11.27
2019-02-17T11:35:29.792Z,11.23
2019-02-17T11:38:14.265Z,10.03
2019-02-17T11:40:59.566Z,11.30
2019-02-17T11:43:44.708Z,11.03
2019-02-17T11:46:38.575Z,11.13
2019-02-17T11:49:23.253Z,10.67
2019-02-17T11:52:08.416Z,11.73
2019-02-17T11:55:02.448Z,11.43
2019-02-17T11:57:56.805Z,11.30
2019-02-17T12:00:50.527Z,13.80
2019-02-17T12:03:35.444Z,11.60
2019-02-17T12:06:29.554Z,11.30
2019-02-17T12:09:23.784Z,11.00
2019-02-17T12:12:18.041Z,11.30
2019-02-17T12:15:11.492Z,10.70
2019-02-17T12:17:56.276Z,11.03
2019-02-17T12:24:42.995Z,10.60
2019-02-17T12:27:57.987Z,10.03
2019-02-17T12:31:02.964Z,10.10
2019-02-17T12:33:48.144Z,10.30
2019-02-17T12:36:33.100Z,11.37
2019-02-17T12:39:17.954Z,10.23
2019-02-17T12:42:03.102Z,13.13
2019-02-17T12:44:48.059Z,10.10
2019-02-17T12:47:33.037Z,14.97
2019-02-17T12:50:27.640Z,13.10
2019-02-17T12:53:12.862Z,9.80
2019-02-17T12:55:57.411Z,10.50
2019-02-17T12:58:42.372Z,10.40
2019-02-17T13:01:28.205Z,9.87
2019-02-17T13:04:22.306Z,10.30
2019-02-17T13:07:16.778Z,10.60
2019-02-17T13:10:01.869Z,9.87
2019-02-17T13:12:56.612Z,10.20
2019-02-17T13:15:40.925Z,10.03
2019-02-17T13:18:25.762Z,9.93
2019-02-17T13:21:10.553Z,10.17
2019-02-17T13:23:55.049Z,11.67
2019-02-17T13:26:39.950Z,10.03
2019-02-17T13:29:25.005Z,10.80
2019-02-17T13:32:10.088Z,10.33
2019-02-17T13:34:54.880Z,10.03
2019-02-17T13:37:39.607Z,10.83
2019-02-17T13:40:24.495Z,10.63
2019-02-17T13:43:10.050Z,9.77
2019-02-17T13:46:03.605Z,10.00
2019-02-17T13:48:49.280Z,9.50
2019-02-17T13:51:34.722Z,10.20
2019-02-17T13:54:20.027Z,9.33
2019-02-17T13:57:13.590Z,10.53
2019-02-17T13:59:59.064Z,10.00
2019-02-17T14:02:52.669Z,9.83
2019-02-17T14:05:37.840Z,10.53
2019-02-17T14:08:31.381Z,10.63
2019-02-17T14:11:16.217Z,8.87
2019-02-17T14:14:00.911Z,9.70
2019-02-17T14:16:47.372Z,9.47
2019-02-17T14:19:32.370Z,8.40
2019-02-17T14:22:17.340Z,9.33
2019-02-17T14:25:11.496Z,9.17
2019-02-17T14:28:05.690Z,9.03
2019-02-17T14:31:00.372Z,8.80
2019-02-17T14:33:58.587Z,9.10
2019-02-17T14:36:43.618Z,9.20
2019-02-17T14:39:38.530Z,8.60
2019-02-17T14:42:23.305Z,8.87
2019-02-17T14:45:18.848Z,9.77
2019-02-17T14:48:03.882Z,10.17
2019-02-17T14:50:58.196Z,10.33
2019-02-17T14:53:52.505Z,9.00
2019-02-17T14:56:47.539Z,8.00
2019-02-17T14:59:41.288Z,7.40
2019-02-17T15:02:35.165Z,6.40
2019-02-17T15:05:20.217Z,6.57
2019-02-17T15:08:14.242Z,7.13
2019-02-17T15:10:59.280Z,6.83
2019-02-17T15:13:45.197Z,6.60
2019-02-17T15:16:29.959Z,6.30
2019-02-17T15:19:15.264Z,6.30
2019-02-17T15:22:09.278Z,6.20
2019-02-17T15:24:53.899Z,5.37
2019-02-17T15:27:38.848Z,5.70
2019-02-17T15:30:24.001Z,5.67
2019-02-17T15:33:17.927Z,5.27
2019-02-17T15:36:02.665Z,5.53
2019-02-17T15:38:47.906Z,4.97
2019-02-17T15:41:41.793Z,4.67
2019-02-17T15:44:35.790Z,5.03
2019-02-17T15:47:21.595Z,4.20
2019-02-17T15:50:06.487Z,3.93
2019-02-17T15:52:51.676Z,4.33
2019-02-17T15:55:36.729Z,4.90
2019-02-17T15:58:21.397Z,4.80
2019-02-17T16:01:06.606Z,4.30
2019-02-17T16:04:01.541Z,4.43
2019-02-17T16:06:47.018Z,4.47
2019-02-17T16:09:32.527Z,4.47
2019-02-17T16:12:26.250Z,4.90
2019-02-17T16:15:11.701Z,4.47
2019-02-17T16:18:05.425Z,5.07
2019-02-17T16:20:49.505Z,4.90
2019-02-17T16:27:10.475Z,5.20
2019-02-17T16:29:55.239Z,5.67
2019-02-17T16:32:40.615Z,6.33
2019-02-17T16:35:25.823Z,5.37
2019-02-17T16:38:20.355Z,5.00
2019-02-17T16:41:14.471Z,5.00
2019-02-17T16:44:08.205Z,4.57
2019-02-17T16:46:52.971Z,4.37
2019-02-17T16:49:38.210Z,4.60
2019-02-17T16:52:31.929Z,5.03
2019-02-17T16:55:16.886Z,5.40
2019-02-17T16:58:11.431Z,5.50
2019-02-17T17:01:05.016Z,5.53
2019-02-17T17:03:50.237Z,5.43
2019-02-17T17:06:44.476Z,5.40
2019-02-17T17:09:38.500Z,4.20
2019-02-17T17:12:32.280Z,4.97
2019-02-17T17:15:17.355Z,4.53
2019-02-17T17:18:10.919Z,3.93
2019-02-17T17:20:58.715Z,4.17
2019-02-17T17:23:43.550Z,4.37
2019-02-17T17:26:28.848Z,5.00
2019-02-17T17:29:13.704Z,4.10
2019-02-17T17:32:07.796Z,3.87
2019-02-17T17:35:02.707Z,4.53
2019-02-17T17:37:56.519Z,4.80
2019-02-17T17:40:41.499Z,4.33
2019-02-17T17:43:35.400Z,4.63
2019-02-17T17:46:20.149Z,4.50
2019-02-17T17:49:05.161Z,4.33
2019-02-17T17:51:49.637Z,4.97
2019-02-17T17:54:34.556Z,4.70
2019-02-17T17:57:19.007Z,4.30
2019-02-17T18:00:04.076Z,4.50
2019-02-17T18:02:50.689Z,4.73
2019-02-17T18:05:35.288Z,5.70
2019-02-17T18:08:20.053Z,4.87
2019-02-17T18:11:05.327Z,4.33
2019-02-17T18:13:58.784Z,4.23
2019-02-17T18:16:43.363Z,4.33
2019-02-17T18:19:38.356Z,4.40
2019-02-17T18:22:32.059Z,4.40
2019-02-17T18:25:16.705Z,4.03
2019-02-17T18:28:02.317Z,5.33
2019-02-17T18:30:58.739Z,5.67
2019-02-17T18:33:52.473Z,6.13
2019-02-17T18:36:37.013Z,6.23
2019-02-17T18:39:22.214Z,5.57
2019-02-17T18:42:06.981Z,6.57
2019-02-17T18:44:51.628Z,7.50
2019-02-17T18:47:37.834Z,4.77
2019-02-17T18:50:22.787Z,4.70
2019-02-17T18:53:07.528Z,5.40
2019-02-17T18:55:52.640Z,5.13
2019-02-17T18:58:37.985Z,5.67
2019-02-17T19:01:31.834Z,5.70
2019-02-17T19:04:25.771Z,5.27
2019-02-17T19:07:20.300Z,5.43
2019-02-17T19:10:14.114Z,5.07
2019-02-17T19:13:07.984Z,5.43
2019-02-17T19:15:53.815Z,5.30
2019-02-17T19:18:39.313Z,5.13
2019-02-17T19:21:24.175Z,5.13
2019-02-17T19:24:09.185Z,4.83
2019-02-17T19:27:03.312Z,5.47
2019-02-17T19:29:57.295Z,5.03
2019-02-17T19:32:50.975Z,5.20
2019-02-17T19:35:41.834Z,5.30
2019-02-17T19:38:22.726Z,5.33
2019-02-17T19:41:16.736Z,5.80
2019-02-17T19:44:11.720Z,7.70
2019-02-17T19:46:56.588Z,6.10
2019-02-17T19:49:41.744Z,5.77
2019-02-17T19:52:26.657Z,5.57
2019-02-17T19:55:11.679Z,5.90
2019-02-17T19:58:05.891Z,5.30
2019-02-17T20:00:59.616Z,5.97
2019-02-17T20:04:02.909Z,5.00
2019-02-17T20:06:47.496Z,5.20
2019-02-17T20:09:41.221Z,5.00
2019-02-17T20:12:34.841Z,5.03
2019-02-17T20:15:20.668Z,5.63
2019-02-17T20:18:05.997Z,4.93
2019-02-17T20:20:50.849Z,4.87
2019-02-17T20:23:36.191Z,4.70
2019-02-17T20:26:29.816Z,4.67
2019-02-17T20:29:14.744Z,4.50
2019-02-17T20:31:59.497Z,4.83
2019-02-17T20:34:43.947Z,4.50
2019-02-17T20:37:29.015Z,4.27
2019-02-17T20:40:14.201Z,5.40
2019-02-17T20:43:08.236Z,4.67
2019-02-17T20:45:53.064Z,4.40
2019-02-17T20:48:46.689Z,5.07
2019-02-17T20:51:31.550Z,4.17
2019-02-17T20:54:16.141Z,4.37
2019-02-17T20:57:00.859Z,4.97
2019-02-17T20:59:45.963Z,4.07
2019-02-17T21:02:30.958Z,4.97
2019-02-17T21:05:15.741Z,5.20
2019-02-17T21:08:00.645Z,4.43
2019-02-17T21:10:45.913Z,4.67
2019-02-17T21:13:39.843Z,4.10
2019-02-17T21:16:33.495Z,3.53
2019-02-17T21:19:18.805Z,3.77
2019-02-17T21:22:12.538Z,3.53
2019-02-17T21:24:57.669Z,3.80
2019-02-17T21:27:53.008Z,3.83
2019-02-17T21:30:37.428Z,3.90
2019-02-17T21:33:22.153Z,3.53
2019-02-17T21:36:06.698Z,3.80
2019-02-17T21:39:00.609Z,3.30
2019-02-17T21:41:55.832Z,4.10
2019-02-17T21:44:40.684Z,3.63
2019-02-17T21:47:25.886Z,3.33
2019-02-17T21:50:19.840Z,3.63
2019-02-17T21:53:04.629Z,3.30
2019-02-17T21:55:49.709Z,4.30
2019-02-17T21:58:43.544Z,6.77
2019-02-17T22:01:28.593Z,9.03
2019-02-17T22:04:22.665Z,6.40
2019-02-17T22:07:16.708Z,7.83
2019-02-17T22:10:11.051Z,7.03
2019-02-17T22:13:04.684Z,6.83
2019-02-17T22:15:50.121Z,5.53
2019-02-17T22:18:44.025Z,5.43
2019-02-17T22:21:38.176Z,5.07
2019-02-17T22:24:31.754Z,4.80
2019-02-17T22:27:16.692Z,5.07
2019-02-17T22:30:01.417Z,4.90
2019-02-17T22:32:47.136Z,4.57
2019-02-17T22:35:32.553Z,4.63
2019-02-17T22:38:17.221Z,5.10
2019-02-17T22:41:02.586Z,5.00
2019-02-17T22:43:56.842Z,5.30
2019-02-17T22:46:50.724Z,4.90
2019-02-17T22:49:44.549Z,5.53
2019-02-17T22:52:29.480Z,5.37
2019-02-17T22:55:14.576Z,5.80
2019-02-17T22:58:08.360Z,5.90
2019-02-17T23:03:53.300Z,6.37
2019-02-17T23:06:38.419Z,6.70
2019-02-17T23:09:22.956Z,6.70
2019-02-17T23:12:07.860Z,6.70
2019-02-17T23:14:52.637Z,6.50
2019-02-17T23:17:37.172Z,6.67
2019-02-17T23:20:30.397Z,6.70
2019-02-17T23:23:14.716Z,6.53
2019-02-17T23:25:59.006Z,6.50
2019-02-17T23:28:52.576Z,6.27
2019-02-17T23:31:37.216Z,5.90
2019-02-17T23:34:22.047Z,6.20
2019-02-17T23:37:06.621Z,6.40
2019-02-17T23:39:51.364Z,5.80
2019-02-17T23:42:36.163Z,6.13
2019-02-17T23:45:21.049Z,6.53
2019-02-17T23:48:05.948Z,5.83
2019-02-17T23:50:51.102Z,6.37
2019-02-17T23:53:36.308Z,6.10
2019-02-17T23:56:30.282Z,6.70
2019-02-17T23:59:24.177Z,7.17
